Time;durP1;ratioP1;P1;durP2;ratioP2;P2;SDS_P1;SDS_P2;PMS_P1;PMS_P2;Temp;Humidity;BMP_temperature;BMP_pressure;BME280_temperature;BME280_humidity;BME280_pressure;Samples;Min_cycle;Max_cycle;Signal;HPM_P1;HPM_P2
2022/09/12 05:00:52;;;;;;;8.97;8.13;;;14.40;97.20;;;;;;1734196;28;20211;-69
2022/09/12 05:01:43;;;;;;;7.43;6.82;;;14.40;97.20;;;;;;1734111;28;20208;-68
2022/09/12 05:02:35;;;;;;;7.60;6.53;;;14.40;97.20;;;;;;1734135;28;20199;-68
2022/09/12 05:03:27;;;;;;;8.05;7.35;;;14.40;97.20;;;;;;1734184;28;20226;-68
2022/09/12 05:04:19;;;;;;;8.13;7.32;;;14.40;97.20;;;;;;1734255;28;20196;-69
2022/09/12 05:05:10;;;;;;;7.20;6.60;;;14.40;97.20;;;;;;1734118;28;20548;-68
2022/09/12 05:06:03;;;;;;;7.70;7.10;;;14.40;97.20;;;;;;1733779;28;20213;-68
2022/09/12 05:06:54;;;;;;;7.85;7.25;;;14.40;97.20;;;;;;1733795;28;20257;-68
2022/09/12 05:07:45;;;;;;;7.90;7.20;;;14.40;97.20;;;;;;1733812;28;20203;-68
2022/09/12 05:08:36;;;;;;;7.35;6.70;;;14.40;97.20;;;;;;1734005;28;20764;-69
2022/09/12 05:09:28;;;;;;;7.70;7.00;;;14.40;97.20;;;;;;1734147;28;20617;-68
2022/09/12 05:10:19;;;;;;;7.78;7.15;;;14.50;97.20;;;;;;1734107;28;20477;-69
2022/09/12 05:11:12;;;;;;;7.50;6.90;;;14.50;97.20;;;;;;1734047;28;20191;-69
2022/09/12 05:12:04;;;;;;;7.40;6.80;;;14.50;97.20;;;;;;1734080;28;20247;-68
2022/09/12 05:12:56;;;;;;;7.25;6.65;;;14.50;97.20;;;;;;1733792;28;20729;-69
2022/09/12 05:13:47;;;;;;;8.00;7.30;;;14.50;97.20;;;;;;1733630;28;20207;-69
2022/09/12 05:14:39;;;;;;;8.18;7.45;;;14.50;97.20;;;;;;1734165;28;20542;-68
2022/09/12 05:15:30;;;;;;;8.15;7.50;;;14.50;97.20;;;;;;1733861;28;20268;-68
2022/09/12 05:16:24;;;;;;;8.30;7.63;;;14.50;97.20;;;;;;1734162;28;20200;-69
2022/09/12 05:17:15;;;;;;;6.95;6.45;;;14.50;97.20;;;;;;1733695;28;20216;-69
2022/09/12 05:18:07;;;;;;;8.00;7.30;;;14.50;97.20;;;;;;1734077;28;20254;-68
2022/09/12 05:18:58;;;;;;;7.30;6.70;;;14.50;97.20;;;;;;1733962;28;20598;-69
2022/09/12 05:19:50;;;;;;;7.50;6.82;;;14.50;97.20;;;;;;1734012;28;20574;-68
2022/09/12 05:20:40;;;;;;;7.75;7.05;;;14.50;97.20;;;;;;1734104;28;20210;-69
2022/09/12 05:21:32;;;;;;;7.53;6.60;;;14.50;97.20;;;;;;1734060;28;20202;-69
2022/09/12 05:22:23;;;;;;;8.00;7.30;;;14.50;97.20;;;;;;1733974;28;20204;-69
2022/09/12 05:23:14;;;;;;;8.03;7.33;;;14.50;97.20;;;;;;1734078;28;20188;-69
2022/09/12 05:24:06;;;;;;;8.10;7.50;;;14.50;97.20;;;;;;1734075;28;20199;-69
2022/09/12 05:24:57;;;;;;;7.50;6.90;;;14.50;97.20;;;;;;1734020;28;20200;-70
2022/09/12 05:25:51;;;;;;;8.43;7.77;;;14.50;97.20;;;;;;1734087;28;20203;-69
2022/09/12 05:26:42;;;;;;;8.25;7.43;;;14.50;97.20;;;;;;1734064;28;20667;-69
2022/09/12 05:27:33;;;;;;;8.40;7.70;;;14.50;97.20;;;;;;1733504;28;20647;-69
2022/09/12 05:28:28;;;;;;;8.07;7.35;;;14.50;97.20;;;;;;1734026;28;20238;-69
2022/09/12 05:29:20;;;;;;;7.97;7.30;;;14.50;97.20;;;;;;1733944;28;20251;-69
2022/09/12 05:30:11;;;;;;;8.38;7.65;;;14.50;97.20;;;;;;1734025;28;20254;-69
2022/09/12 05:31:05;;;;;;;7.20;6.60;;;14.50;97.20;;;;;;1734015;28;20310;-69
2022/09/12 05:31:57;;;;;;;7.95;7.35;;;14.50;97.20;;;;;;1734065;28;20691;-68
2022/09/12 05:32:48;;;;;;;8.07;7.38;;;14.50;97.20;;;;;;1734049;28;20232;-68
2022/09/12 05:33:41;;;;;;;7.43;6.80;;;14.60;97.20;;;;;;1733983;28;20572;-69
2022/09/12 05:34:33;;;;;;;7.32;6.65;;;14.50;97.20;;;;;;1734062;28;20196;-69
2022/09/12 05:35:23;;;;;;;8.48;7.88;;;14.60;97.20;;;;;;1734026;28;20229;-69
2022/09/12 05:36:17;;;;;;;8.07;7.47;;;14.60;97.20;;;;;;1734038;28;20243;-69
2022/09/12 05:37:08;;;;;;;8.07;7.40;;;14.60;97.20;;;;;;1733804;28;20220;-69
2022/09/12 05:37:59;;;;;;;7.30;6.60;;;14.60;97.20;;;;;;1734054;28;20201;-69
2022/09/12 05:38:51;;;;;;;7.70;6.38;;;14.60;97.20;;;;;;1735004;28;20224;-69
2022/09/12 05:39:42;;;;;;;7.07;6.35;;;14.60;97.20;;;;;;1735298;28;20195;-69
2022/09/12 05:40:33;;;;;;;7.03;6.43;;;14.60;97.20;;;;;;1735245;28;20207;-69
2022/09/12 05:41:28;;;;;;;7.40;6.70;;;14.60;97.20;;;;;;1734583;28;20210;-69
2022/09/12 05:42:18;;;;;;;7.18;6.57;;;14.60;97.20;;;;;;1735236;28;20584;-70
2022/09/12 05:43:11;;;;;;;7.10;6.60;;;14.60;97.20;;;;;;1735343;28;20253;-69
2022/09/12 05:44:03;;;;;;;6.20;5.70;;;14.60;97.20;;;;;;1735054;28;20265;-69
2022/09/12 05:44:56;;;;;;;6.78;6.07;;;14.60;97.20;;;;;;1735241;28;20231;-68
2022/09/12 05:45:46;;;;;;;8.60;6.75;;;14.60;97.20;;;;;;1735254;28;20732;-69
2022/09/12 05:46:41;;;;;;;7.57;6.87;;;14.60;97.20;;;;;;1735187;28;20569;-69
2022/09/12 05:47:33;;;;;;;8.40;6.22;;;14.60;97.20;;;;;;1734898;28;20291;-69
2022/09/12 05:48:24;;;;;;;9.38;6.55;;;14.60;97.20;;;;;;1735166;28;20302;-69
2022/09/12 05:49:15;;;;;;;7.35;6.68;;;14.60;97.20;;;;;;1735291;28;20306;-69
2022/09/12 05:50:09;;;;;;;7.93;7.20;;;14.60;97.20;;;;;;1735325;28;20207;-69
2022/09/12 05:51:01;;;;;;;6.57;6.05;;;14.60;97.20;;;;;;1735216;28;20481;-68
2022/09/12 05:51:53;;;;;;;5.90;5.40;;;14.60;97.20;;;;;;1735159;28;20196;-69
2022/09/12 05:52:44;;;;;;;6.40;5.90;;;14.60;97.20;;;;;;1735214;28;20227;-69
2022/09/12 05:53:37;;;;;;;7.30;6.00;;;14.60;97.20;;;;;;1735184;28;20200;-69
2022/09/12 05:54:28;;;;;;;7.05;6.45;;;14.60;97.20;;;;;;1735157;28;20226;-69
2022/09/12 05:55:19;;;;;;;7.20;6.47;;;14.60;97.20;;;;;;1735191;28;20200;-68
2022/09/12 05:56:12;;;;;;;6.75;6.25;;;14.60;97.20;;;;;;1735203;28;20204;-69
2022/09/12 05:57:04;;;;;;;6.45;5.95;;;14.60;97.20;;;;;;1735146;28;20274;-68
2022/09/12 05:57:55;;;;;;;7.00;6.40;;;14.60;97.20;;;;;;1734956;28;20570;-69
2022/09/12 05:58:52;;;;;;;6.93;6.33;;;14.60;97.20;;;;;;1735073;28;20318;-69
2022/09/12 05:59:42;;;;;;;7.47;6.88;;;14.60;97.20;;;;;;1735209;28;20379;-69
2022/09/12 06:00:34;;;;;;;8.27;6.30;;;14.60;97.20;;;;;;1734837;28;20196;-69
2022/09/12 06:01:26;;;;;;;7.10;6.38;;;14.70;97.20;;;;;;1735069;28;20206;-69
2022/09/12 06:02:17;;;;;;;7.05;6.35;;;14.70;97.20;;;;;;1735144;28;20627;-69
2022/09/12 06:03:09;;;;;;;7.13;6.53;;;14.70;97.20;;;;;;1734972;28;20207;-69
2022/09/12 06:04:03;;;;;;;7.03;6.43;;;14.70;97.20;;;;;;1735158;28;20246;-69
2022/09/12 06:04:54;;;;;;;7.70;7.10;;;14.70;97.20;;;;;;1735096;28;20203;-69
2022/09/12 06:05:46;;;;;;;8.57;6.37;;;14.70;97.20;;;;;;1735229;28;20200;-69
2022/09/12 06:06:40;;;;;;;6.55;5.90;;;14.70;97.20;;;;;;1735037;28;20607;-68
2022/09/12 06:07:32;;;;;;;7.63;6.82;;;14.70;97.20;;;;;;1734794;28;20227;-69
2022/09/12 06:08:23;;;;;;;7.35;6.60;;;14.80;97.20;;;;;;1735112;28;20664;-68
2022/09/12 06:09:16;;;;;;;7.13;6.50;;;14.80;97.20;;;;;;1735146;28;20535;-69
2022/09/12 06:10:08;;;;;;;7.70;7.03;;;14.80;97.20;;;;;;1735067;28;20207;-69
2022/09/12 06:11:01;;;;;;;7.38;6.45;;;14.80;97.20;;;;;;1735005;28;20196;-69
2022/09/12 06:11:52;;;;;;;7.75;7.05;;;14.80;97.20;;;;;;1735083;28;20246;-69
2022/09/12 06:12:43;;;;;;;7.43;6.93;;;14.80;97.20;;;;;;1735154;28;20207;-69
2022/09/12 06:13:36;;;;;;;7.57;6.90;;;14.90;97.20;;;;;;1735082;28;20206;-69
2022/09/12 06:14:27;;;;;;;6.88;6.28;;;14.90;97.20;;;;;;1735130;28;20206;-69
2022/09/12 06:15:18;;;;;;;7.70;7.03;;;14.90;97.20;;;;;;1734791;28;20235;-69
2022/09/12 06:16:12;;;;;;;9.83;7.10;;;14.90;97.20;;;;;;1735122;28;20690;-68
2022/09/12 06:17:03;;;;;;;7.68;6.97;;;14.90;97.20;;;;;;1734909;28;21552;-69
2022/09/12 06:17:54;;;;;;;8.35;7.57;;;14.90;97.20;;;;;;1734815;28;20195;-69
2022/09/12 06:18:48;;;;;;;8.75;6.82;;;15.00;97.20;;;;;;1734858;28;20208;-69
2022/09/12 06:19:40;;;;;;;8.32;7.53;;;15.00;97.20;;;;;;1735122;28;20283;-68
2022/09/12 06:20:31;;;;;;;7.60;6.90;;;15.00;97.20;;;;;;1735018;28;20227;-69
2022/09/12 06:21:24;;;;;;;14.23;8.00;;;15.00;97.20;;;;;;1735094;28;20231;-69
2022/09/12 06:22:15;;;;;;;8.57;7.70;;;15.00;97.20;;;;;;1735035;28;20229;-69
2022/09/12 06:23:07;;;;;;;8.20;7.50;;;15.10;97.20;;;;;;1735040;28;20202;-69
2022/09/12 06:23:58;;;;;;;8.30;7.60;;;15.10;97.20;;;;;;1734928;28;20438;-70
2022/09/12 06:24:49;;;;;;;8.60;7.82;;;15.10;97.20;;;;;;1735165;28;20570;-70
2022/09/12 06:25:46;;;;;;;12.13;8.13;;;15.10;97.20;;;;;;1735007;28;20203;-69
2022/09/12 06:26:38;;;;;;;9.07;8.30;;;15.10;97.20;;;;;;1734959;28;20617;-69
2022/09/12 06:27:29;;;;;;;8.43;7.55;;;15.20;97.20;;;;;;1734472;28;20270;-69
2022/09/12 06:28:20;;;;;;;8.60;7.90;;;15.20;97.20;;;;;;1735019;28;20192;-68
2022/09/12 06:29:12;;;;;;;9.45;8.40;;;15.20;97.20;;;;;;1735031;28;20206;-69
2022/09/12 06:30:04;;;;;;;9.35;8.55;;;15.20;97.20;;;;;;1734914;28;20278;-69
2022/09/12 06:31:01;;;;;;;9.02;8.02;;;15.20;97.20;;;;;;1731817;28;20215;-69
2022/09/12 06:31:53;;;;;;;9.23;8.43;;;15.30;97.20;;;;;;1731030;28;20196;-69
2022/09/12 06:32:44;;;;;;;9.38;8.60;;;15.30;97.20;;;;;;1734620;28;20224;-69
2022/09/12 06:33:38;;;;;;;10.13;9.30;;;15.30;97.20;;;;;;1734082;28;20204;-68
2022/09/12 06:34:30;;;;;;;10.50;9.60;;;15.40;97.20;;;;;;1734783;28;20602;-69
2022/09/12 06:35:22;;;;;;;9.85;8.95;;;15.40;97.20;;;;;;1733947;28;20207;-69
2022/09/12 06:36:15;;;;;;;11.05;10.05;;;15.40;97.20;;;;;;1728076;28;20699;-70
2022/09/12 06:37:10;;;;;;;10.20;9.40;;;15.40;97.20;;;;;;1727767;28;20711;-69
2022/09/12 06:38:01;;;;;;;10.98;10.05;;;15.40;97.20;;;;;;1727874;28;20197;-69
2022/09/12 06:38:57;;;;;;;10.30;9.40;;;15.50;97.20;;;;;;1727768;28;20215;-68
2022/09/12 06:39:48;;;;;;;11.15;10.15;;;15.50;97.20;;;;;;1734894;28;20204;-69
2022/09/12 06:40:42;;;;;;;9.60;8.77;;;15.50;97.20;;;;;;1734630;28;20231;-69
2022/09/12 06:41:33;;;;;;;10.40;9.50;;;15.50;97.20;;;;;;1734839;28;20212;-69
2022/09/12 06:42:27;;;;;;;9.23;8.43;;;15.50;97.20;;;;;;1734835;28;20253;-69
2022/09/12 06:43:18;;;;;;;10.32;9.43;;;15.60;97.20;;;;;;1734751;28;20210;-69
2022/09/12 06:44:13;;;;;;;9.52;8.63;;;15.60;97.20;;;;;;1734783;28;20629;-69
2022/09/12 06:45:04;;;;;;;8.88;8.10;;;15.60;97.20;;;;;;1734720;28;20200;-69
2022/09/12 06:45:57;;;;;;;8.63;7.75;;;15.70;97.20;;;;;;1734600;28;20208;-68
2022/09/12 06:46:48;;;;;;;9.63;8.73;;;15.70;97.20;;;;;;1734473;28;20211;-69
2022/09/12 06:47:40;;;;;;;9.35;8.55;;;15.80;97.20;;;;;;1733747;28;20231;-69
2022/09/12 06:48:31;;;;;;;9.43;8.63;;;15.80;97.20;;;;;;1734579;28;20204;-69
2022/09/12 06:49:22;;;;;;;9.00;8.30;;;15.80;97.20;;;;;;1734672;28;20200;-69
2022/09/12 06:50:14;;;;;;;11.88;9.55;;;15.90;97.20;;;;;;1733314;28;20796;-71
2022/09/12 06:51:09;;;;;;;10.82;9.88;;;15.90;97.20;;;;;;1733918;28;20207;-70
2022/09/12 06:52:00;;;;;;;10.90;9.80;;;16.00;97.20;;;;;;1734456;28;20195;-70
2022/09/12 06:52:52;;;;;;;9.40;8.60;;;16.00;97.20;;;;;;1734739;28;20686;-70
2022/09/12 06:53:44;;;;;;;9.50;8.75;;;16.00;97.20;;;;;;1734697;28;20655;-70
2022/09/12 06:54:35;;;;;;;10.35;9.48;;;16.00;97.20;;;;;;1734410;28;20763;-69
2022/09/12 06:55:26;;;;;;;9.95;9.15;;;16.10;97.20;;;;;;1734824;28;20238;-69
2022/09/12 06:56:21;;;;;;;10.20;9.23;;;16.10;97.20;;;;;;1734667;28;20200;-70
2022/09/12 06:57:11;;;;;;;9.48;8.68;;;16.10;97.20;;;;;;1733844;28;20277;-70
2022/09/12 06:58:04;;;;;;;9.40;8.57;;;16.10;97.20;;;;;;1734730;28;20204;-69
2022/09/12 06:58:56;;;;;;;9.50;8.80;;;16.10;97.20;;;;;;1734465;28;20684;-69
2022/09/12 06:59:48;;;;;;;9.43;8.70;;;16.20;97.20;;;;;;1734612;28;20556;-69
2022/09/12 07:00:39;;;;;;;9.82;9.02;;;16.20;97.20;;;;;;1734526;28;20310;-69
2022/09/12 07:01:31;;;;;;;9.60;8.80;;;16.20;97.20;;;;;;1734744;28;20215;-69
2022/09/12 07:02:24;;;;;;;9.50;8.70;;;16.20;97.20;;;;;;1734594;28;20223;-69
2022/09/12 07:03:16;;;;;;;9.20;8.40;;;16.20;97.20;;;;;;1734602;28;20238;-69
2022/09/12 07:04:07;;;;;;;8.63;7.93;;;16.20;97.20;;;;;;1734515;28;20207;-69
2022/09/12 07:04:59;;;;;;;9.07;8.27;;;16.20;97.20;;;;;;1733995;28;20249;-69
2022/09/12 07:05:51;;;;;;;9.20;8.35;;;16.20;97.20;;;;;;1734645;28;20555;-69
2022/09/12 07:06:43;;;;;;;8.40;7.70;;;16.30;97.20;;;;;;1734333;28;20203;-69
2022/09/12 07:07:34;;;;;;;8.43;7.57;;;16.30;97.20;;;;;;1734034;28;20582;-69
2022/09/12 07:08:30;;;;;;;9.75;8.20;;;16.30;97.20;;;;;;1734576;28;20208;-69
2022/09/12 07:09:21;;;;;;;8.50;7.70;;;16.30;97.20;;;;;;1734477;28;20200;-69
2022/09/12 07:10:13;;;;;;;8.57;7.77;;;16.40;97.20;;;;;;1734662;28;20260;-69
2022/09/12 07:11:12;;;;;;;9.52;8.73;;;16.40;97.20;;;;;;1734491;28;20242;-69
2022/09/12 07:12:05;;;;;;;8.50;7.80;;;16.50;97.20;;;;;;1734470;28;20603;-69
2022/09/12 07:12:55;;;;;;;9.88;9.00;;;16.50;97.20;;;;;;1734095;28;20207;-69
2022/09/12 07:13:49;;;;;;;10.80;8.10;;;16.60;97.20;;;;;;1734522;28;20203;-69
2022/09/12 07:14:40;;;;;;;9.73;8.55;;;16.60;97.20;;;;;;1734436;28;20446;-69
2022/09/12 07:15:34;;;;;;;14.65;9.70;;;16.70;97.20;;;;;;1734566;28;20230;-69
2022/09/12 07:16:25;;;;;;;8.88;8.07;;;16.70;97.20;;;;;;1734541;28;20205;-69
2022/09/12 07:17:17;;;;;;;9.27;8.45;;;16.70;97.20;;;;;;1733650;28;20238;-69
2022/09/12 07:18:09;;;;;;;9.27;8.48;;;16.80;97.20;;;;;;1734622;28;20678;-68
2022/09/12 07:19:03;;;;;;;9.30;8.57;;;16.80;97.20;;;;;;1734408;28;20211;-68
2022/09/12 07:19:54;;;;;;;9.57;8.68;;;16.80;97.20;;;;;;1734495;28;20208;-69
2022/09/12 07:20:45;;;;;;;9.27;8.47;;;16.80;97.20;;;;;;1734084;28;20202;-69
2022/09/12 07:21:39;;;;;;;9.57;8.63;;;16.90;97.20;;;;;;1734016;28;20458;-69
2022/09/12 07:22:31;;;;;;;8.98;8.18;;;16.90;97.20;;;;;;1734473;28;20212;-68
2022/09/12 07:23:22;;;;;;;8.85;8.15;;;16.90;97.20;;;;;;1734512;28;20235;-69
2022/09/12 07:24:14;;;;;;;9.37;8.60;;;17.00;97.20;;;;;;1734395;28;20198;-69
2022/09/12 07:25:05;;;;;;;8.80;8.10;;;17.00;97.20;;;;;;1734407;28;20262;-69
2022/09/12 07:25:58;;;;;;;9.27;8.57;;;17.00;97.20;;;;;;1734403;28;20191;-68
2022/09/12 07:26:50;;;;;;;9.02;8.23;;;17.10;97.20;;;;;;1734151;28;20567;-69
2022/09/12 07:27:42;;;;;;;8.35;7.75;;;17.10;97.20;;;;;;1733888;28;20203;-69
2022/09/12 07:28:34;;;;;;;9.80;8.80;;;17.10;97.20;;;;;;1734339;28;20195;-69
2022/09/12 07:29:25;;;;;;;7.93;7.10;;;17.10;97.20;;;;;;1734468;28;20619;-69
2022/09/12 07:30:17;;;;;;;8.10;7.40;;;17.20;97.20;;;;;;1734455;28;20608;-68
2022/09/12 07:31:09;;;;;;;9.00;8.10;;;17.20;97.20;;;;;;1734375;28;20211;-69
2022/09/12 07:32:01;;;;;;;8.98;8.05;;;17.30;97.20;;;;;;1734306;28;20609;-68
2022/09/12 07:32:53;;;;;;;8.80;7.90;;;17.30;97.20;;;;;;1734435;28;20207;-69
2022/09/12 07:33:44;;;;;;;7.85;7.25;;;17.40;97.20;;;;;;1734418;28;20234;-69
2022/09/12 07:34:35;;;;;;;8.13;7.35;;;17.40;97.20;;;;;;1734414;28;20235;-69
2022/09/12 07:35:27;;;;;;;6.90;6.40;;;17.50;97.20;;;;;;1734435;28;20290;-69
2022/09/12 07:36:19;;;;;;;7.07;6.47;;;17.50;97.20;;;;;;1734378;28;20199;-69
2022/09/12 07:37:12;;;;;;;7.63;7.03;;;17.50;97.20;;;;;;1733375;28;20222;-69
2022/09/12 07:38:03;;;;;;;7.90;7.18;;;17.60;97.20;;;;;;1727565;28;20211;-68
2022/09/12 07:38:56;;;;;;;7.23;6.53;;;17.60;97.20;;;;;;1727506;28;20656;-69
2022/09/12 07:39:46;;;;;;;7.28;6.70;;;17.60;97.20;;;;;;1727555;28;20247;-69
2022/09/12 07:40:39;;;;;;;7.50;6.90;;;17.70;97.20;;;;;;1727522;28;20201;-69
2022/09/12 07:41:32;;;;;;;7.28;6.70;;;17.70;97.20;;;;;;1727627;28;20243;-69
2022/09/12 07:42:24;;;;;;;6.72;6.20;;;17.80;97.20;;;;;;1727512;28;20255;-69
2022/09/12 07:43:15;;;;;;;6.15;5.65;;;17.80;97.20;;;;;;1727563;28;20672;-69
2022/09/12 07:44:06;;;;;;;7.00;6.40;;;17.90;97.20;;;;;;1727582;28;20542;-69
2022/09/12 07:44:57;;;;;;;7.07;6.47;;;17.90;97.20;;;;;;1727571;28;20205;-69
2022/09/12 07:45:54;;;;;;;7.47;6.87;;;17.90;97.20;;;;;;1727571;28;20668;-69
2022/09/12 07:46:45;;;;;;;7.60;6.90;;;18.00;97.20;;;;;;1727319;28;20583;-69
2022/09/12 07:47:36;;;;;;;6.83;6.23;;;18.00;97.20;;;;;;1727069;28;20570;-69
2022/09/12 07:48:27;;;;;;;6.90;6.32;;;18.10;97.20;;;;;;1727461;28;20466;-69
2022/09/12 07:49:19;;;;;;;8.53;6.87;;;18.10;97.20;;;;;;1727408;28;20256;-69
2022/09/12 07:50:10;;;;;;;6.72;6.13;;;18.10;97.20;;;;;;1727580;28;20595;-69
2022/09/12 07:51:04;;;;;;;7.55;6.85;;;18.20;97.20;;;;;;1727415;28;20239;-68
2022/09/12 07:51:55;;;;;;;5.95;5.45;;;18.30;97.20;;;;;;1727505;28;20212;-69
2022/09/12 07:52:49;;;;;;;6.30;5.78;;;18.30;97.20;;;;;;1727546;28;20196;-69
2022/09/12 07:53:42;;;;;;;6.85;6.35;;;18.30;97.20;;;;;;1727488;28;20239;-69
2022/09/12 07:54:33;;;;;;;6.63;6.03;;;18.40;97.20;;;;;;1733947;28;20199;-68
2022/09/12 07:55:24;;;;;;;6.72;6.13;;;18.40;97.20;;;;;;1734066;28;20227;-69
2022/09/12 07:56:17;;;;;;;6.40;5.90;;;18.40;97.20;;;;;;1734267;28;20210;-69
2022/09/12 07:57:09;;;;;;;6.90;6.40;;;18.50;97.20;;;;;;1733994;28;20466;-69
2022/09/12 07:57:59;;;;;;;6.45;5.95;;;18.50;97.20;;;;;;1734224;28;20202;-68
2022/09/12 07:58:51;;;;;;;6.50;6.00;;;18.50;97.20;;;;;;1734273;28;20199;-69
2022/09/12 07:59:42;;;;;;;6.20;5.70;;;18.50;97.20;;;;;;1734129;28;20224;-69
2022/09/12 08:00:35;;;;;;;6.70;6.20;;;18.50;97.20;;;;;;1734087;28;20198;-68
2022/09/12 08:01:26;;;;;;;7.10;6.40;;;18.50;97.20;;;;;;1734051;28;20272;-71
2022/09/12 08:02:18;;;;;;;6.15;5.55;;;18.50;97.20;;;;;;1733728;28;20660;-69
2022/09/12 08:03:09;;;;;;;6.50;6.00;;;18.60;97.20;;;;;;1734273;28;20353;-69
2022/09/12 08:04:02;;;;;;;6.07;5.57;;;18.70;97.20;;;;;;1734157;28;20286;-69
2022/09/12 08:04:53;;;;;;;7.00;6.40;;;18.70;97.20;;;;;;1734268;28;20204;-69
2022/09/12 08:05:44;;;;;;;6.47;5.97;;;18.70;97.20;;;;;;1734186;28;20196;-68
2022/09/12 08:06:35;;;;;;;6.88;5.82;;;18.80;97.20;;;;;;1734174;28;20667;-69
2022/09/12 08:07:27;;;;;;;7.17;6.00;;;18.90;97.20;;;;;;1733490;28;20628;-69
2022/09/12 08:08:19;;;;;;;6.95;6.25;;;18.90;97.20;;;;;;1734096;28;20941;-69
2022/09/12 08:09:14;;;;;;;6.07;5.57;;;19.00;97.20;;;;;;1734087;28;20203;-70
2022/09/12 08:10:05;;;;;;;5.90;5.30;;;19.00;97.20;;;;;;1734147;28;20549;-68
2022/09/12 08:10:58;;;;;;;5.78;5.28;;;19.10;97.20;;;;;;1732118;28;20192;-69
2022/09/12 08:11:49;;;;;;;6.18;5.55;;;19.10;97.20;;;;;;1726923;28;20211;-69
2022/09/12 08:12:41;;;;;;;5.20;4.80;;;19.20;97.20;;;;;;1727355;28;20211;-69
2022/09/12 08:13:35;;;;;;;5.80;5.30;;;19.20;97.20;;;;;;1727388;28;20208;-69
2022/09/12 08:14:27;;;;;;;5.60;5.20;;;19.30;97.20;;;;;;1727356;28;20743;-69
2022/09/12 08:15:19;;;;;;;5.55;5.05;;;19.40;97.20;;;;;;1727349;28;20291;-69
2022/09/12 08:16:13;;;;;;;5.78;5.18;;;19.50;97.20;;;;;;1727415;28;20251;-69
2022/09/12 08:17:05;;;;;;;6.00;5.40;;;19.50;97.20;;;;;;1726989;28;20232;-70
2022/09/12 08:17:57;;;;;;;5.25;4.70;;;19.60;97.20;;;;;;1726813;28;20228;-70
2022/09/12 08:18:48;;;;;;;5.03;4.63;;;19.70;97.20;;;;;;1727205;28;20262;-69
2022/09/12 08:19:40;;;;;;;5.07;4.68;;;19.70;97.20;;;;;;1727253;28;20572;-69
2022/09/12 08:20:31;;;;;;;5.50;5.10;;;19.80;97.20;;;;;;1727417;28;20239;-69
2022/09/12 08:21:26;;;;;;;4.60;4.30;;;19.90;97.20;;;;;;1727323;28;20208;-69
2022/09/12 08:22:20;;;;;;;4.75;4.45;;;19.90;97.20;;;;;;1727299;28;20205;-70
2022/09/12 08:23:12;;;;;;;5.07;4.65;;;19.90;97.20;;;;;;1727349;28;20200;-70
2022/09/12 08:24:05;;;;;;;4.90;4.60;;;20.00;97.20;;;;;;1727255;28;20231;-69
2022/09/12 08:24:57;;;;;;;4.80;4.45;;;20.00;97.20;;;;;;1727326;28;20204;-69
2022/09/12 08:25:48;;;;;;;4.50;4.20;;;20.10;97.20;;;;;;1727319;28;20200;-69
2022/09/12 08:26:40;;;;;;;4.60;4.20;;;20.10;97.20;;;;;;1727085;28;20208;-69
2022/09/12 08:27:31;;;;;;;5.38;4.70;;;20.10;97.20;;;;;;1731568;28;20216;-68
2022/09/12 08:28:23;;;;;;;4.40;4.10;;;20.10;97.20;;;;;;1733983;28;20199;-69
2022/09/12 08:29:14;;;;;;;4.45;4.15;;;20.10;97.20;;;;;;1734102;28;20196;-69
2022/09/12 08:30:06;;;;;;;4.40;4.10;;;20.10;97.20;;;;;;1734032;28;20678;-69
2022/09/12 08:31:00;;;;;;;4.00;3.60;;;20.10;97.20;;;;;;1734009;28;20512;-69
2022/09/12 08:31:51;;;;;;;4.43;4.13;;;20.10;97.20;;;;;;1733973;28;20200;-69
2022/09/12 08:32:42;;;;;;;5.35;4.95;;;20.20;97.20;;;;;;1734184;28;20200;-68
2022/09/12 08:33:34;;;;;;;5.20;4.80;;;20.20;97.20;;;;;;1734204;28;20204;-69
2022/09/12 08:34:25;;;;;;;5.30;4.80;;;20.20;97.20;;;;;;1734070;28;20262;-69
2022/09/12 08:35:17;;;;;;;5.70;5.00;;;20.20;97.20;;;;;;1734065;28;20203;-69
2022/09/12 08:36:10;;;;;;;4.70;4.35;;;20.30;97.20;;;;;;1734112;28;20470;-68
2022/09/12 08:37:02;;;;;;;4.60;4.30;;;20.30;97.20;;;;;;1733683;28;20253;-69
2022/09/12 08:37:53;;;;;;;5.18;4.78;;;20.40;97.20;;;;;;1733599;28;20208;-69
2022/09/12 08:38:47;;;;;;;4.40;4.10;;;20.50;97.20;;;;;;1733582;28;20230;-69
2022/09/12 08:39:39;;;;;;;4.88;4.47;;;20.50;97.20;;;;;;1733946;28;20210;-68
2022/09/12 08:40:31;;;;;;;4.90;4.50;;;20.60;97.20;;;;;;1734149;28;20640;-69
2022/09/12 08:41:27;;;;;;;5.25;4.85;;;20.70;97.20;;;;;;1733820;28;20204;-69
2022/09/12 08:42:28;;;;;;;5.30;4.90;;;20.70;97.20;;;;;;1727339;28;20200;-69
2022/09/12 08:43:43;;;;;;;5.07;4.68;;;20.80;97.20;;;;;;1726929;28;20201;-69
2022/09/12 08:45:05;;;;;;;5.68;4.75;;;20.80;97.20;;;;;;1726667;28;20687;-68
2022/09/12 08:46:03;;;;;;;5.68;5.13;;;20.80;97.20;;;;;;1727174;28;20207;-69
2022/09/12 08:47:16;;;;;;;5.40;4.90;;;20.90;97.20;;;;;;1726912;28;20201;-68
2022/09/12 08:48:09;;;;;;;6.03;5.45;;;20.90;97.20;;;;;;1727238;28;20204;-69
2022/09/12 08:49:04;;;;;;;5.50;5.10;;;20.90;97.20;;;;;;1727012;28;20197;-68
2022/09/12 08:50:01;;;;;;;5.47;5.07;;;20.90;97.20;;;;;;1727199;28;20208;-69
2022/09/12 08:50:53;;;;;;;5.72;5.22;;;21.00;97.20;;;;;;1733807;28;20200;-68
2022/09/12 08:51:44;;;;;;;4.70;4.30;;;21.00;97.20;;;;;;1733926;28;20212;-69
2022/09/12 08:52:41;;;;;;;4.63;4.32;;;21.10;97.20;;;;;;1733665;28;20200;-68
2022/09/12 08:53:36;;;;;;;7.32;4.32;;;21.10;97.20;;;;;;1734072;28;20208;-69
2022/09/12 08:54:30;;;;;;;5.53;5.00;;;21.20;97.20;;;;;;1734151;28;20199;-69
2022/09/12 08:55:32;;;;;;;4.95;4.65;;;21.20;97.20;;;;;;1733988;28;20207;-69
2022/09/12 08:56:26;;;;;;;4.97;4.55;;;21.30;97.20;;;;;;1733982;28;20222;-69
2022/09/12 08:57:17;;;;;;;5.45;4.93;;;21.30;97.20;;;;;;1733152;28;20227;-69
2022/09/12 08:58:14;;;;;;;4.47;4.10;;;21.30;97.20;;;;;;1734066;28;20269;-69
2022/09/12 08:59:07;;;;;;;4.40;4.10;;;21.30;97.20;;;;;;1733913;28;20831;-68
2022/09/12 09:00:02;;;;;;;5.22;4.68;;;21.30;97.20;;;;;;1733833;28;20250;-69
2022/09/12 09:01:00;;;;;;;4.15;3.85;;;21.40;97.20;;;;;;1733992;28;20207;-69
2022/09/12 09:01:57;;;;;;;5.20;3.90;;;21.40;97.20;;;;;;1734051;28;20200;-68
2022/09/12 09:03:21;;;;;;;9.68;5.65;;;21.40;97.20;;;;;;1733907;28;20215;-69
2022/09/12 09:04:28;;;;;;;7.70;5.60;;;21.50;97.20;;;;;;1713069;28;20249;-69
2022/09/12 09:05:27;;;;;;;18.33;6.47;;;21.60;97.20;;;;;;1733953;28;20200;-69
2022/09/12 09:06:47;;;;;;;20.95;7.03;;;21.70;97.20;;;;;;1733696;28;20609;-69
2022/09/12 09:08:12;;;;;;;9.50;4.85;;;21.80;97.20;;;;;;1733474;28;20207;-68
2022/09/12 09:09:10;;;;;;;3.78;3.47;;;21.90;97.20;;;;;;1733879;28;20227;-68
2022/09/12 09:10:14;;;;;;;4.22;3.85;;;22.00;97.20;;;;;;1733976;28;20196;-69
2022/09/12 09:11:17;;;;;;;5.20;4.30;;;22.00;97.20;;;;;;1733988;28;20207;-69
2022/09/12 09:12:17;;;;;;;4.97;4.05;;;22.10;97.20;;;;;;1733990;28;20631;-69
2022/09/12 09:14:49;;;;;;;4.65;4.25;;;22.20;97.20;;;;;;1735246;28;20667;-69
2022/09/12 09:15:49;;;;;;;4.10;3.80;;;22.40;97.20;;;;;;1735310;28;20269;-69
2022/09/12 09:16:44;;;;;;;3.20;3.00;;;22.40;97.20;;;;;;1735075;28;20302;-69
2022/09/12 09:17:39;;;;;;;3.55;3.35;;;22.50;97.20;;;;;;1734712;28;20596;-69
2022/09/12 09:18:34;;;;;;;3.70;3.42;;;22.60;97.20;;;;;;1735266;28;20261;-69
2022/09/12 09:19:31;;;;;;;3.38;3.00;;;22.60;97.20;;;;;;1735309;28;20211;-69
2022/09/12 09:20:30;;;;;;;3.50;3.22;;;22.60;97.20;;;;;;1735134;28;20255;-69
2022/09/12 09:21:26;;;;;;;4.10;3.65;;;22.70;97.20;;;;;;1735090;28;20200;-69
2022/09/12 09:22:28;;;;;;;3.50;3.30;;;22.80;97.20;;;;;;1730747;28;21925;-68
2022/09/12 09:23:22;;;;;;;3.60;3.30;;;22.80;97.20;;;;;;1731094;28;20205;-68
2022/09/12 09:24:19;;;;;;;4.20;3.80;;;22.90;97.20;;;;;;1740660;28;20655;-68
2022/09/12 09:25:16;;;;;;;3.17;2.97;;;22.90;97.20;;;;;;1728187;28;20582;-68
2022/09/12 09:26:15;;;;;;;3.13;2.92;;;22.90;97.20;;;;;;1735272;28;20200;-69
2022/09/12 09:27:13;;;;;;;3.03;2.83;;;23.00;97.20;;;;;;1728239;28;20354;-68
2022/09/12 09:28:12;;;;;;;5.38;3.47;;;23.10;97.20;;;;;;1728043;28;20284;-69
2022/09/12 09:29:10;;;;;;;3.00;2.80;;;23.20;97.20;;;;;;1728176;28;20228;-68
2022/09/12 09:30:03;;;;;;;3.05;2.85;;;23.20;97.20;;;;;;1728273;28;20197;-68
2022/09/12 09:30:54;;;;;;;3.20;3.00;;;23.30;97.20;;;;;;1730720;28;20593;-68
2022/09/12 09:31:48;;;;;;;3.15;2.92;;;23.40;97.20;;;;;;1734926;28;20206;-68
2022/09/12 09:32:40;;;;;;;4.60;3.45;;;23.40;97.20;;;;;;1735246;28;20204;-69
2022/09/12 09:33:34;;;;;;;3.30;3.00;;;23.50;97.20;;;;;;1734780;28;20563;-69
2022/09/12 09:34:30;;;;;;;3.00;2.75;;;23.50;97.20;;;;;;1735185;28;20204;-69
2022/09/12 09:35:29;;;;;;;3.50;3.20;;;23.50;97.20;;;;;;1735169;28;20278;-69
2022/09/12 09:36:22;;;;;;;2.80;2.60;;;23.50;97.20;;;;;;1735184;28;20214;-69
2022/09/12 09:37:19;;;;;;;2.80;2.60;;;23.50;97.20;;;;;;1734398;28;20750;-68
2022/09/12 09:38:22;;;;;;;2.78;2.58;;;23.60;97.20;;;;;;1735272;28;20212;-69
2022/09/12 09:39:24;;;;;;;3.55;3.25;;;23.60;97.20;;;;;;1735081;28;20204;-69